Time;durP1;ratioP1;P1;durP2;ratioP2;P2;SDS_P1;SDS_P2;PMS_P1;PMS_P2;Temp;Humidity;BMP_temperature;BMP_pressure;BME280_temperature;BME280_humidity;BME280_pressure;Samples;Min_cycle;Max_cycle;Signal;HPM_P1;HPM_P2
2023/01/31 00:01:19;;;;;;;;;24.00;21.25;;;;;7.27;64.44;102510.34;5033106;28;45518;-69
2023/01/31 00:03:46;;;;;;;;;25.75;20.25;;;;;7.16;64.71;102500.31;5022526;28;46994;-69
2023/01/31 00:06:16;;;;;;;;;19.50;15.75;;;;;7.14;64.64;102490.66;5035738;28;45618;-69
2023/01/31 00:08:42;;;;;;;;;22.50;18.75;;;;;7.15;65.18;102482.91;5035267;28;45500;-70
2023/01/31 00:11:09;;;;;;;;;21.00;18.25;;;;;7.25;64.96;102491.13;5035281;28;45698;-71
2023/01/31 00:13:35;;;;;;;;;20.25;17.25;;;;;7.25;64.67;102494.63;5037117;28;45488;-70
2023/01/31 00:16:01;;;;;;;;;22.25;19.25;;;;;7.20;64.94;102485.72;5055073;28;45445;-68
2023/01/31 00:18:27;;;;;;;;;16.75;13.25;;;;;7.17;65.03;102494.28;5039689;28;45422;-68
2023/01/31 00:20:53;;;;;;;;;21.75;15.25;;;;;7.15;64.76;102495.06;5039302;28;45675;-69
2023/01/31 00:23:18;;;;;;;;;26.00;22.25;;;;;7.07;65.29;102486.91;5050262;28;46062;-67
2023/01/31 00:25:44;;;;;;;;;27.00;21.25;;;;;7.05;65.29;102488.53;5034740;28;45559;-69
2023/01/31 00:28:09;;;;;;;;;29.00;21.50;;;;;6.97;65.35;102476.88;5034854;28;45441;-67
2023/01/31 00:30:35;;;;;;;;;24.75;21.75;;;;;7.03;65.10;102477.16;5035561;28;45551;-71
2023/01/31 00:33:00;;;;;;;;;23.25;19.00;;;;;7.05;65.42;102483.34;5035356;28;46393;-69
2023/01/31 00:35:26;;;;;;;;;23.75;20.25;;;;;7.09;65.25;102485.22;5035231;28;46061;-71
2023/01/31 00:37:51;;;;;;;;;26.75;24.00;;;;;7.10;64.91;102480.94;5014566;28;45416;-72
2023/01/31 00:40:18;;;;;;;;;31.00;25.00;;;;;7.07;64.97;102462.53;5018656;28;45616;-69
2023/01/31 00:42:44;;;;;;;;;27.75;23.50;;;;;7.12;65.44;102481.88;5021537;28;45537;-68
2023/01/31 00:45:10;;;;;;;;;29.25;23.75;;;;;7.12;64.88;102477.56;5034433;28;45465;-69
2023/01/31 00:47:35;;;;;;;;;40.25;30.00;;;;;7.10;65.36;102487.03;5035026;28;45316;-69
2023/01/31 00:50:02;;;;;;;;;44.75;35.25;;;;;7.09;65.52;102489.56;5050366;28;45542;-68
2023/01/31 00:52:27;;;;;;;;;51.75;40.50;;;;;7.05;64.97;102479.81;5024227;28;45443;-68
2023/01/31 00:54:53;;;;;;;;;51.00;38.75;;;;;6.95;65.24;102475.91;5038881;28;45477;-68
2023/01/31 00:57:18;;;;;;;;;51.50;37.00;;;;;6.88;65.49;102466.03;5039008;28;45535;-68
2023/01/31 00:59:44;;;;;;;;;51.50;38.00;;;;;6.83;65.50;102454.53;5039284;28;45521;-66
2023/01/31 01:02:09;;;;;;;;;46.75;39.25;;;;;6.86;65.66;102462.47;5038894;28;47052;-67
2023/01/31 01:04:35;;;;;;;;;49.75;38.75;;;;;6.84;65.87;102472.84;5050150;28;45825;-69
2023/01/31 01:07:00;;;;;;;;;45.50;35.00;;;;;6.75;66.31;102464.59;5034814;28;45489;-68
2023/01/31 01:09:26;;;;;;;;;43.25;33.75;;;;;6.68;65.91;102463.44;5035177;28;45556;-68
2023/01/31 01:11:51;;;;;;;;;44.00;32.25;;;;;6.62;66.42;102444.94;5035308;28;45858;-68
2023/01/31 01:14:17;;;;;;;;;35.75;30.50;;;;;6.74;66.04;102447.22;5034471;28;45467;-65
2023/01/31 01:16:42;;;;;;;;;39.50;30.75;;;;;6.73;65.95;102441.09;5033516;28;45405;-68
2023/01/31 01:19:14;;;;;;;;;33.75;25.25;;;;;6.85;65.72;102448.56;5029638;28;45490;-69
2023/01/31 01:21:40;;;;;;;;;25.75;24.25;;;;;6.72;65.75;102431.50;5019131;28;46416;-68
2023/01/31 01:24:11;;;;;;;;;29.75;24.25;;;;;6.79;65.85;102445.72;5034548;28;45315;-68
2023/01/31 01:26:36;;;;;;;;;30.00;24.00;;;;;6.67;65.99;102433.03;5034255;28;45509;-69
2023/01/31 01:29:03;;;;;;;;;30.00;26.00;;;;;6.67;66.32;102453.84;5033987;28;45406;-68
2023/01/31 01:31:29;;;;;;;;;26.50;23.25;;;;;6.69;66.08;102457.44;5049478;28;46908;-69
2023/01/31 01:33:59;;;;;;;;;27.25;23.75;;;;;6.60;65.92;102457.00;5038266;28;45434;-67
2023/01/31 01:36:25;;;;;;;;;25.50;23.25;;;;;6.58;66.41;102456.91;5036999;28;45461;-68
2023/01/31 01:38:52;;;;;;;;;20.00;18.00;;;;;6.36;66.57;102420.31;5033638;28;45619;-68
2023/01/31 01:41:19;;;;;;;;;25.00;18.50;;;;;6.54;66.34;102462.78;5034600;28;46286;-68
2023/01/31 01:43:52;;;;;;;;;25.00;19.50;;;;;6.61;66.40;102469.19;5066722;28;45531;-68
2023/01/31 01:46:27;;;;;;;;;21.00;19.75;;;;;6.59;66.38;102465.63;5050382;28;45452;-67
2023/01/31 01:49:27;;;;;;;;;22.25;22.25;;;;;6.49;66.41;102468.63;5037337;28;45394;-68
2023/01/31 01:51:55;;;;;;;;;25.75;25.75;;;;;6.46;66.28;102477.19;5025177;28;45787;-68
2023/01/31 01:54:27;;;;;;;;;30.25;25.00;;;;;6.35;66.50;102455.84;5062229;28;45440;-68
2023/01/31 01:57:00;;;;;;;;;26.75;25.25;;;;;6.35;66.62;102465.38;5034409;28;45482;-68
2023/01/31 01:59:42;;;;;;;;;26.75;21.00;;;;;6.40;67.17;102462.97;5035524;28;45406;-70
2023/01/31 02:02:08;;;;;;;;;22.00;20.25;;;;;6.33;66.73;102444.47;5051236;28;46811;-69
2023/01/31 02:04:38;;;;;;;;;29.25;22.25;;;;;6.37;66.78;102454.22;5033115;28;45542;-66
2023/01/31 02:07:06;;;;;;;;;25.25;23.75;;;;;6.30;66.82;102451.25;5053284;28;45512;-71
2023/01/31 02:09:59;;;;;;;;;28.00;22.75;;;;;6.28;67.50;102465.91;5069592;28;45505;-70
2023/01/31 02:12:25;;;;;;;;;18.75;18.00;;;;;6.29;67.82;102457.28;5033216;28;45681;-70
2023/01/31 02:14:52;;;;;;;;;18.75;17.50;;;;;6.31;67.40;102455.63;5032407;28;45430;-69
2023/01/31 02:17:19;;;;;;;;;23.25;17.25;;;;;6.39;67.33;102456.91;5049572;28;45624;-72
2023/01/31 02:20:05;;;;;;;;;19.50;17.50;;;;;6.39;67.07;102448.19;5049280;28;45733;-69
2023/01/31 02:22:51;;;;;;;;;17.50;16.00;;;;;6.38;66.90;102455.09;5051636;28;46424;-70
2023/01/31 02:25:29;;;;;;;;;20.50;17.00;;;;;6.36;67.10;102452.44;5048714;28;45558;-69
2023/01/31 02:28:36;;;;;;;;;16.00;16.00;;;;;6.40;67.26;102442.16;5033897;28;45280;-67
2023/01/31 02:31:07;;;;;;;;;19.25;17.25;;;;;6.48;67.37;102446.91;5035464;28;45559;-67
2023/01/31 02:34:03;;;;;;;;;21.00;17.50;;;;;6.49;66.92;102455.59;5032836;28;45541;-69
2023/01/31 02:36:32;;;;;;;;;22.75;18.25;;;;;6.46;67.03;102456.34;5033460;28;45443;-69
2023/01/31 02:39:21;;;;;;;;;16.75;11.25;;;;;6.37;67.06;102446.41;5034165;28;45469;-68
2023/01/31 02:42:08;;;;;;;;;18.00;18.00;;;;;6.44;67.00;102465.81;5035610;28;45561;-67
2023/01/31 02:45:00;;;;;;;;;17.50;16.25;;;;;6.48;66.71;102459.03;5033516;28;45672;-68
2023/01/31 02:47:53;;;;;;;;;20.50;19.50;;;;;6.48;66.97;102456.44;5048861;28;45402;-68
2023/01/31 02:50:30;;;;;;;;;17.75;17.75;;;;;6.45;66.82;102461.47;5038019;28;45502;-67
2023/01/31 02:53:07;;;;;;;;;23.00;20.75;;;;;6.30;67.26;102449.53;5038438;28;45353;-68
2023/01/31 02:58:38;;;;;;;;;25.25;19.50;;;;;6.27;67.54;102456.31;5039306;28;45441;-68
2023/01/31 03:01:06;;;;;;;;;21.75;21.50;;;;;6.21;67.60;102446.50;5041406;28;45596;-67
2023/01/31 03:03:35;;;;;;;;;21.00;18.75;;;;;6.24;67.41;102454.47;5056800;28;45429;-68
2023/01/31 03:06:09;;;;;;;;;22.25;19.25;;;;;6.29;67.54;102452.97;5041054;28;46116;-67
2023/01/31 03:08:38;;;;;;;;;17.50;16.25;;;;;6.28;67.94;102456.38;5039432;28;45458;-67
2023/01/31 03:11:06;;;;;;;;;21.00;18.75;;;;;6.27;67.97;102453.72;5041304;28;45493;-68
2023/01/31 03:13:38;;;;;;;;;21.25;18.25;;;;;6.24;67.44;102445.75;5041177;28;45484;-69
2023/01/31 03:19:29;;;;;;;;;19.25;17.50;;;;;6.31;67.44;102461.75;5036054;28;45303;-68
2023/01/31 03:22:06;;;;;;;;;18.50;16.25;;;;;6.30;67.68;102440.84;5024033;28;45684;-68
2023/01/31 03:24:33;;;;;;;;;20.75;20.75;;;;;6.28;67.78;102434.69;5035364;28;45383;-68
2023/01/31 03:27:03;;;;;;;;;22.00;16.75;;;;;6.32;67.55;102452.22;5036303;28;45765;-67
2023/01/31 03:29:33;;;;;;;;;25.75;17.75;;;;;6.31;66.99;102445.22;5035791;28;45536;-68
2023/01/31 03:32:08;;;;;;;;;20.25;16.75;;;;;6.35;67.35;102455.84;5038100;28;45464;-68
2023/01/31 03:34:34;;;;;;;;;19.00;19.00;;;;;6.36;67.53;102465.47;5036735;28;45394;-69
2023/01/31 03:37:21;;;;;;;;;23.25;18.75;;;;;6.31;67.13;102461.75;5034665;28;46669;-69
2023/01/31 03:40:18;;;;;;;;;20.00;18.00;;;;;6.34;67.00;102467.09;5037976;28;45403;-67
2023/01/31 03:43:08;;;;;;;;;22.25;19.50;;;;;6.31;67.18;102461.75;5051841;28;45476;-68
2023/01/31 03:45:51;;;;;;;;;19.50;16.00;;;;;6.32;67.28;102460.03;5051060;28;45472;-67
2023/01/31 03:48:21;;;;;;;;;15.00;15.00;;;;;6.20;67.64;102449.06;5036588;28;45627;-67
2023/01/31 03:50:52;;;;;;;;;22.75;16.75;;;;;6.22;67.56;102463.91;5036121;28;45701;-68
2023/01/31 03:53:29;;;;;;;;;23.50;18.50;;;;;6.24;67.64;102470.09;5051527;28;45304;-69
2023/01/31 03:56:04;;;;;;;;;18.00;15.25;;;;;6.19;67.71;102457.66;5037221;28;45741;-69
2023/01/31 03:58:37;;;;;;;;;20.75;18.75;;;;;6.04;68.00;102443.09;5039859;28;45426;-69
2023/01/31 04:01:06;;;;;;;;;20.25;17.00;;;;;6.06;67.59;102459.69;5054193;28;45432;-70
2023/01/31 04:03:44;;;;;;;;;16.50;16.00;;;;;6.10;67.53;102463.34;5039850;28;45445;-70
2023/01/31 04:06:11;;;;;;;;;20.00;15.25;;;;;6.12;68.08;102451.25;5039441;28;45457;-68
2023/01/31 04:08:37;;;;;;;;;20.00;17.00;;;;;6.17;67.82;102460.22;5040307;28;46206;-71
2023/01/31 04:11:04;;;;;;;;;16.50;15.50;;;;;6.14;68.10;102455.72;5039176;28;45665;-70
2023/01/31 04:13:30;;;;;;;;;16.75;15.00;;;;;5.96;67.63;102436.66;5068164;27;45335;-68
2023/01/31 04:15:56;;;;;;;;;18.00;14.50;;;;;6.06;67.61;102448.38;5036441;28;45477;-68
2023/01/31 04:18:22;;;;;;;;;17.75;15.75;;;;;6.01;68.06;102440.38;5035343;28;45466;-69
2023/01/31 04:20:47;;;;;;;;;14.00;13.50;;;;;6.12;67.74;102461.66;5034384;28;45355;-68
2023/01/31 04:23:13;;;;;;;;;17.75;13.50;;;;;6.13;68.14;102456.56;5035783;28;45580;-68
2023/01/31 04:25:38;;;;;;;;;11.50;11.50;;;;;6.16;68.00;102458.41;5037186;28;45360;-68
2023/01/31 04:28:04;;;;;;;;;12.75;11.00;;;;;6.11;67.96;102446.91;5036979;28;45453;-67
2023/01/31 04:30:29;;;;;;;;;15.00;12.00;;;;;6.15;67.91;102454.91;5035518;28;45500;-67
2023/01/31 04:32:55;;;;;;;;;14.75;11.25;;;;;6.18;67.45;102467.19;5050853;28;45585;-68
2023/01/31 04:35:20;;;;;;;;;12.50;12.50;;;;;6.17;67.37;102462.81;5034521;28;45696;-71
2023/01/31 04:37:46;;;;;;;;;14.75;10.75;;;;;6.10;67.49;102458.13;5035383;28;45898;-68
2023/01/31 04:40:13;;;;;;;;;15.75;11.50;;;;;6.08;68.00;102459.75;5050390;28;45500;-68
2023/01/31 04:42:39;;;;;;;;;15.50;12.25;;;;;6.19;67.21;102473.28;5033944;28;45484;-72
2023/01/31 04:45:05;;;;;;;;;17.00;14.00;;;;;6.12;67.36;102457.38;5034778;28;45419;-72
2023/01/31 04:47:30;;;;;;;;;11.00;10.25;;;;;6.22;67.27;102474.31;5038535;28;46475;-68
2023/01/31 04:49:56;;;;;;;;;17.25;15.00;;;;;6.19;66.97;102461.16;5039020;28;45486;-68
2023/01/31 04:52:23;;;;;;;;;17.50;12.50;;;;;6.20;67.66;102462.06;5037628;28;45419;-67
2023/01/31 04:54:48;;;;;;;;;17.75;15.75;;;;;6.11;67.31;102441.69;5021289;28;45486;-68
2023/01/31 04:57:14;;;;;;;;;12.25;12.25;;;;;6.14;67.44;102452.22;5034658;28;45438;-68
2023/01/31 04:59:39;;;;;;;;;15.50;13.50;;;;;6.14;67.65;102453.13;5034527;28;45514;-68
2023/01/31 05:02:05;;;;;;;;;17.25;15.25;;;;;6.10;67.52;102456.41;5034823;28;45418;-70
2023/01/31 05:04:31;;;;;;;;;15.25;12.25;;;;;6.12;67.43;102460.00;5035238;28;45295;-68
2023/01/31 05:06:56;;;;;;;;;16.00;14.00;;;;;6.15;67.52;102461.84;5037239;28;46598;-67
2023/01/31 05:09:23;;;;;;;;;15.50;12.00;;;;;6.08;67.30;102457.16;5036770;28;45492;-68
2023/01/31 05:11:49;;;;;;;;;15.25;14.25;;;;;6.05;67.59;102447.50;5033158;28;45605;-68
2023/01/31 05:14:15;;;;;;;;;15.25;12.50;;;;;6.10;67.71;102447.72;5032551;28;45383;-68
2023/01/31 05:16:44;;;;;;;;;18.00;13.00;;;;;6.05;67.44;102436.19;5044829;28;45375;-68
2023/01/31 05:19:10;;;;;;;;;16.50;13.75;;;;;6.07;67.26;102440.63;5054195;28;45454;-67
2023/01/31 05:21:53;;;;;;;;;14.75;12.00;;;;;6.08;67.50;102438.97;5038364;28;45342;-69
2023/01/31 05:24:23;;;;;;;;;17.25;13.50;;;;;6.05;67.77;102437.09;5034928;28;45941;-68
2023/01/31 05:26:51;;;;;;;;;16.00;13.75;;;;;5.99;68.19;102426.38;5033503;28;45516;-68
2023/01/31 05:29:18;;;;;;;;;13.75;11.25;;;;;6.07;67.58;102439.75;5024369;28;45304;-68
2023/01/31 05:31:44;;;;;;;;;12.50;11.25;;;;;6.09;67.41;102446.81;5037494;28;45461;-69
2023/01/31 05:34:13;;;;;;;;;14.50;13.00;;;;;5.88;67.00;102407.63;5037704;28;45441;-67
2023/01/31 05:36:40;;;;;;;;;11.75;11.50;;;;;6.11;67.71;102452.09;5040692;28;48152;-67
2023/01/31 05:39:06;;;;;;;;;10.75;10.75;;;;;6.12;67.51;102440.84;5033338;28;45520;-68
2023/01/31 05:41:32;;;;;;;;;12.75;11.00;;;;;6.09;67.62;102445.94;5029776;28;45471;-68
2023/01/31 05:43:58;;;;;;;;;10.50;9.25;;;;;6.13;67.12;102455.66;5029678;28;45413;-66
2023/01/31 05:46:23;;;;;;;;;12.75;10.00;;;;;6.18;66.97;102467.19;5016989;28;45682;-69
2023/01/31 05:48:49;;;;;;;;;11.75;11.00;;;;;6.18;67.42;102461.09;5023173;28;46036;-68
2023/01/31 05:51:15;;;;;;;;;11.50;10.50;;;;;6.19;66.74;102461.16;5036573;28;45394;-68
2023/01/31 05:53:40;;;;;;;;;11.75;11.75;;;;;6.12;67.62;102459.06;5050078;28;45461;-69
2023/01/31 05:56:06;;;;;;;;;17.50;12.50;;;;;6.16;67.42;102463.59;5033256;28;45889;-68
2023/01/31 05:58:32;;;;;;;;;13.50;9.00;;;;;6.13;67.29;102459.16;5033009;28;45501;-67
2023/01/31 06:00:58;;;;;;;;;12.00;9.25;;;;;6.13;67.27;102459.16;5033664;28;45482;-68
2023/01/31 06:03:24;;;;;;;;;13.75;11.00;;;;;6.07;67.52;102456.25;5033755;28;45403;-68
2023/01/31 06:05:49;;;;;;;;;11.75;11.75;;;;;6.08;67.55;102457.16;5035346;28;46243;-68
2023/01/31 06:08:16;;;;;;;;;13.50;9.75;;;;;6.06;67.42;102453.59;5047013;28;45616;-68
2023/01/31 06:10:42;;;;;;;;;13.50;11.25;;;;;6.18;67.59;102458.50;5033109;28;45389;-68
2023/01/31 06:13:08;;;;;;;;;9.25;8.25;;;;;6.15;67.97;102448.84;5034833;28;45512;-68
2023/01/31 06:15:33;;;;;;;;;10.00;9.00;;;;;6.22;67.54;102456.09;5035891;28;45545;-67
2023/01/31 06:17:59;;;;;;;;;12.75;8.25;;;;;6.16;67.63;102451.50;5029955;28;45481;-67
2023/01/31 06:20:25;;;;;;;;;11.50;11.00;;;;;6.18;67.53;102448.97;5034052;28;45307;-69
2023/01/31 06:22:51;;;;;;;;;8.00;8.00;;;;;6.20;67.92;102439.53;5032523;28;45458;-66
2023/01/31 06:25:17;;;;;;;;;11.75;9.75;;;;;6.16;67.43;102435.00;5032593;28;46477;-68
2023/01/31 06:27:42;;;;;;;;;11.75;9.75;;;;;6.24;67.73;102451.88;5036633;28;45372;-68
2023/01/31 06:30:09;;;;;;;;;10.00;8.50;;;;;6.30;67.46;102457.34;5033025;28;45326;-67
2023/01/31 06:32:35;;;;;;;;;10.75;8.25;;;;;6.28;67.72;102455.50;5032260;28;45513;-69
2023/01/31 06:35:04;;;;;;;;;13.00;10.00;;;;;6.34;67.40;102461.00;5033318;28;45706;-67
2023/01/31 06:37:30;;;;;;;;;17.75;9.50;;;;;6.39;67.63;102479.44;5035373;28;45363;-67
2023/01/31 06:39:55;;;;;;;;;10.00;8.75;;;;;6.32;67.77;102471.31;5033643;28;45387;-68
2023/01/31 06:42:21;;;;;;;;;10.75;8.25;;;;;6.37;67.29;102480.25;5032760;28;45471;-68
2023/01/31 06:44:47;;;;;;;;;9.00;8.00;;;;;6.28;67.41;102471.09;5033165;28;45462;-68
2023/01/31 06:47:13;;;;;;;;;10.25;8.00;;;;;6.40;67.39;102476.88;5033826;28;45437;-68
2023/01/31 06:49:39;;;;;;;;;10.00;8.00;;;;;6.37;67.36;102482.84;5064355;28;45504;-71
2023/01/31 06:52:05;;;;;;;;;9.75;8.00;;;;;6.37;67.16;102475.03;5035480;28;45484;-67
2023/01/31 06:54:30;;;;;;;;;11.75;8.25;;;;;6.35;67.59;102483.59;5036568;28;45440;-69
2023/01/31 06:56:56;;;;;;;;;11.25;7.75;;;;;6.29;67.20;102473.78;5036902;28;45447;-68
2023/01/31 06:59:21;;;;;;;;;10.75;7.50;;;;;6.35;67.27;102481.88;5036876;28;45516;-69
2023/01/31 07:01:47;;;;;;;;;12.75;7.75;;;;;6.37;67.43;102477.63;5037659;28;45767;-71
2023/01/31 07:04:12;;;;;;;;;9.00;8.25;;;;;6.37;67.17;102480.25;5033157;28;45798;-71
2023/01/31 07:06:38;;;;;;;;;13.25;9.00;;;;;6.43;67.05;102489.16;5031730;28;45442;-67
2023/01/31 07:09:04;;;;;;;;;15.00;10.00;;;;;6.40;66.85;102465.59;5032949;28;45299;-70
2023/01/31 07:11:30;;;;;;;;;9.75;8.25;;;;;6.38;67.20;102473.31;5033375;28;45800;-72
2023/01/31 07:13:55;;;;;;;;;13.00;8.75;;;;;6.48;67.07;102482.47;5032730;28;45571;-71
2023/01/31 07:16:24;;;;;;;;;9.00;7.50;;;;;6.52;67.18;102492.19;5032055;28;45333;-70
2023/01/31 07:18:53;;;;;;;;;9.00;8.75;;;;;6.45;67.00;102479.69;5032981;28;45459;-70
2023/01/31 07:21:21;;;;;;;;;6.75;6.75;;;;;6.51;66.99;102495.63;5035756;28;45478;-69
2023/01/31 07:23:46;;;;;;;;;10.00;7.00;;;;;6.44;67.37;102478.81;5028954;28;46419;-68
2023/01/31 07:26:12;;;;;;;;;9.75;7.00;;;;;6.49;66.99;102477.31;5017374;28;46108;-68
2023/01/31 07:28:38;;;;;;;;;7.75;7.00;;;;;6.57;66.84;102485.47;5040023;28;45414;-68
2023/01/31 07:31:10;;;;;;;;;9.50;7.75;;;;;6.56;66.42;102468.09;5032704;28;45465;-68
2023/01/31 07:33:36;;;;;;;;;12.50;8.00;;;;;6.48;66.42;102466.84;5034865;28;45656;-69
2023/01/31 07:36:03;;;;;;;;;13.00;9.25;;;;;6.52;66.96;102490.47;5038462;28;45284;-67
2023/01/31 07:38:30;;;;;;;;;8.25;6.50;;;;;6.51;66.50;102485.22;5035898;28;45612;-68
2023/01/31 07:41:00;;;;;;;;;10.00;8.00;;;;;6.59;66.30;102492.53;5036082;28;45415;-68
2023/01/31 07:43:53;;;;;;;;;8.00;7.00;;;;;6.64;66.13;102497.94;5050679;28;45775;-69
2023/01/31 07:46:19;;;;;;;;;9.50;8.00;;;;;6.69;66.48;102491.28;5035424;28;45465;-67
2023/01/31 07:48:45;;;;;;;;;9.00;7.50;;;;;6.63;66.22;102488.38;5036003;28;45423;-68
2023/01/31 07:51:10;;;;;;;;;11.50;9.00;;;;;6.64;65.62;102484.06;5040157;28;45446;-68
2023/01/31 07:53:41;;;;;;;;;9.75;7.25;;;;;6.65;66.36;102483.25;5038936;28;46276;-69
2023/01/31 07:56:12;;;;;;;;;10.50;9.00;;;;;6.70;65.97;102489.56;5067934;28;45540;-69
2023/01/31 07:59:00;;;;;;;;;13.25;9.25;;;;;6.70;65.79;102495.66;5035632;28;45544;-68
2023/01/31 08:04:38;;;;;;;;;10.25;10.25;;;;;6.73;65.74;102485.38;5037116;28;45347;-71
2023/01/31 08:07:05;;;;;;;;;10.75;9.25;;;;;6.80;65.85;102495.22;5035577;28;45501;-68
2023/01/31 08:09:31;;;;;;;;;9.25;7.25;;;;;6.75;65.62;102482.84;5038898;28;45321;-70
2023/01/31 08:11:57;;;;;;;;;11.50;8.25;;;;;6.73;65.48;102481.88;5039476;28;45384;-68
2023/01/31 08:14:24;;;;;;;;;13.25;9.25;;;;;6.80;65.76;102494.34;5037632;28;45977;-70
2023/01/31 08:16:59;;;;;;;;;8.25;8.25;;;;;6.88;65.62;102502.50;5039477;28;45586;-71
2023/01/31 08:19:25;;;;;;;;;10.00;9.25;;;;;6.95;65.50;102495.06;5038622;28;45477;-69
2023/01/31 08:21:51;;;;;;;;;11.00;9.75;;;;;6.98;65.41;102495.19;5050592;28;45552;-71
2023/01/31 08:24:16;;;;;;;;;8.25;7.75;;;;;6.95;65.12;102481.13;5043694;28;47778;-70
2023/01/31 08:26:42;;;;;;;;;10.75;7.75;;;;;7.12;65.12;102511.44;5028100;28;45482;-68
2023/01/31 08:29:08;;;;;;;;;9.25;8.00;;;;;7.18;65.12;102511.69;5050622;28;45447;-74
2023/01/31 08:31:34;;;;;;;;;14.00;11.00;;;;;7.31;64.96;102512.22;5031361;28;45368;-69
2023/01/31 08:33:59;;;;;;;;;16.25;11.50;;;;;7.38;64.34;102509.06;5051946;28;46850;-69
2023/01/31 08:36:28;;;;;;;;;14.75;9.75;;;;;7.49;64.37;102507.81;5035243;28;45481;-68
2023/01/31 08:38:55;;;;;;;;;13.75;11.75;;;;;7.59;63.80;102510.03;5035079;28;45505;-69
2023/01/31 08:41:22;;;;;;;;;11.00;9.75;;;;;7.65;63.76;102506.78;5038270;28;45429;-70
2023/01/31 08:43:48;;;;;;;;;12.00;9.00;;;;;7.74;63.49;102514.97;5039007;28;45374;-69
2023/01/31 08:46:14;;;;;;;;;11.50;9.00;;;;;7.77;63.37;102524.66;5036529;28;45979;-68
2023/01/31 08:48:41;;;;;;;;;12.75;10.00;;;;;7.72;63.32;102514.03;5034818;28;45445;-69
2023/01/31 08:51:09;;;;;;;;;13.00;12.75;;;;;7.92;63.20;102522.66;5029808;28;45944;-69
2023/01/31 08:53:43;;;;;;;;;15.00;11.50;;;;;7.94;63.19;102528.84;5038717;28;46699;-69
2023/01/31 08:56:10;;;;;;;;;12.25;8.75;;;;;7.88;63.03;102522.47;5033037;28;45402;-67
2023/01/31 08:58:38;;;;;;;;;12.75;11.75;;;;;7.87;62.80;102529.41;5030970;28;45505;-68
2023/01/31 09:01:08;;;;;;;;;13.50;12.75;;;;;7.96;62.89;102528.91;5019827;28;45531;-69
2023/01/31 09:03:34;;;;;;;;;15.25;13.75;;;;;8.03;62.60;102526.63;5065936;28;47238;-68
2023/01/31 09:06:04;;;;;;;;;14.00;13.25;;;;;8.10;62.71;102513.84;5030961;28;45390;-69
2023/01/31 09:08:30;;;;;;;;;12.50;12.00;;;;;8.24;62.30;102512.66;5032600;28;45492;-69
2023/01/31 09:10:59;;;;;;;;;13.25;11.75;;;;;8.38;61.69;102485.38;5033558;28;45452;-68
2023/01/31 09:13:27;;;;;;;;;18.75;14.00;;;;;8.70;61.23;102499.69;5033887;28;46714;-68
2023/01/31 09:16:06;;;;;;;;;15.50;10.75;;;;;8.82;60.76;102503.59;5033697;28;45594;-68
2023/01/31 09:18:33;;;;;;;;;20.00;14.50;;;;;8.89;60.26;102516.06;5034055;28;45768;-68
2023/01/31 09:21:17;;;;;;;;;15.75;13.50;;;;;8.94;59.83;102511.91;5038353;28;45537;-70
2023/01/31 09:23:43;;;;;;;;;15.50;12.00;;;;;9.07;59.55;102505.41;5026832;28;47434;-70
2023/01/31 09:26:11;;;;;;;;;17.50;12.50;;;;;9.01;59.51;102506.06;5028797;28;45450;-68
2023/01/31 09:28:36;;;;;;;;;12.50;12.25;;;;;9.00;59.40;102512.13;5031999;28;45586;-69
2023/01/31 09:31:07;;;;;;;;;13.00;11.50;;;;;8.80;59.62;102490.47;5033315;28;45363;-69
2023/01/31 09:33:34;;;;;;;;;11.75;10.00;;;;;8.77;59.77;102508.66;5041344;28;47248;-68
2023/01/31 09:36:13;;;;;;;;;9.50;8.75;;;;;8.79;59.49;102493.94;5035762;28;45490;-70
2023/01/31 09:38:39;;;;;;;;;14.00;10.50;;;;;8.93;59.64;102533.66;5033814;28;45510;-70
2023/01/31 09:41:25;;;;;;;;;13.00;12.00;;;;;8.81;59.72;102515.78;5034690;28;45449;-72
2023/01/31 09:44:28;;;;;;;;;13.25;10.25;;;;;8.80;59.75;102523.56;5041029;28;47623;-72
2023/01/31 09:47:28;;;;;;;;;12.50;11.00;;;;;8.78;60.27;102538.28;5029289;28;45829;-69
2023/01/31 09:50:04;;;;;;;;;13.25;10.50;;;;;8.78;60.09;102539.19;5030368;28;45731;-71
2023/01/31 09:52:31;;;;;;;;;15.00;10.00;;;;;8.61;60.37;102529.81;5033731;28;45371;-69
2023/01/31 09:54:58;;;;;;;;;12.00;9.75;;;;;8.56;60.27;102539.19;5033531;28;45666;-69
2023/01/31 09:57:49;;;;;;;;;9.00;9.00;;;;;8.43;60.83;102523.03;5032878;28;45530;-69
2023/01/31 10:00:31;;;;;;;;;14.25;10.50;;;;;8.54;60.72;102541.72;5033501;28;45628;-69
2023/01/31 10:03:21;;;;;;;;;19.25;11.00;;;;;8.38;60.96;102514.09;5033317;28;45529;-69
2023/01/31 10:06:02;;;;;;;;;11.75;10.00;;;;;8.52;60.73;102550.34;5032312;28;46430;-69
2023/01/31 10:08:50;;;;;;;;;10.50;9.00;;;;;8.51;61.03;102543.34;5033722;28;45508;-69
2023/01/31 10:11:40;;;;;;;;;9.50;9.00;;;;;8.16;61.15;102475.81;5037425;28;45334;-71
2023/01/31 10:14:37;;;;;;;;;9.75;8.75;;;;;8.50;60.78;102518.94;5035888;28;45453;-69
2023/01/31 10:17:18;;;;;;;;;9.75;9.75;;;;;8.53;60.47;102523.41;5061309;28;46880;-68
2023/01/31 10:20:03;;;;;;;;;10.75;8.50;;;;;8.61;60.51;102541.16;5029325;28;45483;-69
2023/01/31 10:23:01;;;;;;;;;9.25;8.75;;;;;8.69;60.51;102542.34;5031594;28;45493;-69
2023/01/31 10:25:30;;;;;;;;;9.75;6.00;;;;;8.67;60.03;102528.31;5019155;28;45560;-68
2023/01/31 10:28:03;;;;;;;;;10.75;9.00;;;;;8.78;59.99;102552.25;5033074;28;45744;-68
2023/01/31 10:30:44;;;;;;;;;12.25;8.75;;;;;8.82;59.80;102556.75;5021575;28;45560;-68
2023/01/31 10:33:35;;;;;;;;;11.75;8.50;;;;;8.81;59.71;102547.13;5032941;28;45693;-68
2023/01/31 10:36:08;;;;;;;;;9.00;6.25;;;;;8.89;59.24;102534.38;5035697;28;45707;-70
2023/01/31 10:40:41;;;;;;;;;5.75;5.25;;;;;9.33;58.26;102527.28;5075224;27;45267;-71
2023/01/31 10:43:29;;;;;;;;;7.25;6.25;;;;;9.47;58.17;102505.09;5056515;28;45743;-70
2023/01/31 10:45:59;;;;;;;;;11.00;8.75;;;;;9.95;57.69;102517.19;5056407;28;45599;-70
2023/01/31 10:48:28;;;;;;;;;7.25;6.75;;;;;10.59;55.71;102502.66;5050478;28;45685;-68
2023/01/31 10:51:16;;;;;;;;;12.00;7.75;;;;;10.73;55.23;102516.16;5070313;27;47201;-69
2023/01/31 10:54:12;;;;;;;;;8.50;7.75;;;;;10.59;55.21;102503.53;5050977;28;45487;-69
2023/01/31 10:56:47;;;;;;;;;9.75;7.75;;;;;10.54;55.25;102519.97;5045346;28;45956;-70
2023/01/31 10:59:28;;;;;;;;;9.75;8.25;;;;;10.38;54.99;102515.97;5050340;28;45466;-70
2023/01/31 11:01:54;;;;;;;;;8.75;7.25;;;;;10.22;54.91;102497.97;5050729;28;46359;-71
2023/01/31 11:04:28;;;;;;;;;7.50;7.00;;;;;10.27;55.43;102515.59;5052044;28;45535;-69
2023/01/31 11:06:54;;;;;;;;;9.25;7.00;;;;;10.25;54.85;102498.06;5055823;28;45485;-71
2023/01/31 11:09:22;;;;;;;;;6.25;5.50;;;;;10.43;54.87;102501.28;5054749;28;45457;-69
2023/01/31 11:12:07;;;;;;;;;11.25;7.00;;;;;10.90;54.26;102482.59;5051530;28;46624;-70
2023/01/31 11:14:34;;;;;;;;;10.00;7.50;;;;;11.61;53.13;102478.41;5051999;28;45718;-70
2023/01/31 11:17:13;;;;;;;;;8.25;8.25;;;;;12.06;51.21;102477.78;5051494;28;45454;-70
2023/01/31 11:19:57;;;;;;;;;9.25;7.25;;;;;11.93;51.10;102459.06;5052801;28;45504;-69
2023/01/31 11:22:29;;;;;;;;;9.25;8.00;;;;;11.78;51.28;102470.94;5055472;28;46277;-69
2023/01/31 11:24:57;;;;;;;;;11.50;8.00;;;;;11.55;51.85;102477.34;5054294;28;45457;-71
2023/01/31 11:27:32;;;;;;;;;5.75;5.50;;;;;11.35;52.17;102474.22;5062781;28;45820;-69
2023/01/31 11:29:59;;;;;;;;;7.50;5.75;;;;;11.21;52.24;102481.69;5040411;28;45506;-69
2023/01/31 11:32:29;;;;;;;;;6.75;5.75;;;;;11.22;52.62;102472.97;5053540;28;45625;-71
2023/01/31 11:35:04;;;;;;;;;10.25;7.25;;;;;11.20;52.64;102456.31;5052484;28;45589;-69
2023/01/31 11:37:32;;;;;;;;;9.75;8.75;;;;;11.21;52.47;102444.97;5041583;28;45299;-71
2023/01/31 11:40:28;;;;;;;;;10.25;9.50;;;;;11.30;52.47;102465.34;5054683;27;45445;-71
2023/01/31 11:43:03;;;;;;;;;10.25;7.75;;;;;11.08;52.99;102450.72;5068392;28;45468;-71
2023/01/31 11:45:36;;;;;;;;;5.00;5.00;;;;;11.04;53.37;102458.53;5068103;27;45758;-71
2023/01/31 11:48:11;;;;;;;;;5.75;5.75;;;;;11.00;54.08;102443.53;5067344;28;45946;-70
2023/01/31 11:50:42;;;;;;;;;11.00;8.00;;;;;10.87;55.06;102432.66;5062136;27;45636;-69